createdAt,value
2023-05-09T00:01:25.317Z,2.50
2023-05-09T00:03:52.781Z,2.40
2023-05-09T00:06:20.384Z,2.60
2023-05-09T00:08:47.800Z,2.50
2023-05-09T00:11:15.468Z,2.70
2023-05-09T00:13:44.258Z,2.58
2023-05-09T00:16:11.693Z,2.25
2023-05-09T00:18:42.306Z,2.20
2023-05-09T00:21:11.061Z,2.47
2023-05-09T00:23:38.774Z,2.20
2023-05-09T00:26:06.261Z,2.40
2023-05-09T00:28:34.257Z,2.38
2023-05-09T00:31:01.794Z,2.08
2023-05-09T00:33:29.314Z,2.25
2023-05-09T00:35:56.766Z,2.47
2023-05-09T00:38:24.251Z,1.95
2023-05-09T00:40:51.744Z,2.10
2023-05-09T00:43:19.272Z,2.00
2023-05-09T00:45:46.970Z,2.38
2023-05-09T00:48:15.822Z,2.00
2023-05-09T00:50:43.947Z,2.72
2023-05-09T00:53:12.048Z,2.15
2023-05-09T00:55:40.537Z,2.08
2023-05-09T00:58:08.061Z,2.22
2023-05-09T01:00:36.759Z,2.50
2023-05-09T01:03:05.063Z,2.30
2023-05-09T01:05:58.516Z,2.58
2023-05-09T01:08:47.313Z,2.50
2023-05-09T01:11:34.465Z,3.10
2023-05-09T01:14:38.705Z,2.75
2023-05-09T01:17:18.354Z,2.17
2023-05-09T01:20:20.755Z,2.42
2023-05-09T01:22:55.952Z,1.98
2023-05-09T01:25:54.758Z,2.15
2023-05-09T01:28:54.927Z,2.80
2023-05-09T01:31:24.787Z,2.80
2023-05-09T01:33:57.702Z,2.47
2023-05-09T01:36:30.121Z,2.50
2023-05-09T01:38:59.265Z,2.50
2023-05-09T01:41:31.833Z,2.28
2023-05-09T01:44:02.074Z,2.67
2023-05-09T01:46:30.805Z,3.05
2023-05-09T01:48:59.455Z,2.63
2023-05-09T01:51:28.697Z,2.53
2023-05-09T01:53:57.794Z,2.63
2023-05-09T01:56:27.792Z,2.05
2023-05-09T01:58:57.269Z,3.08
2023-05-09T02:01:26.357Z,2.60
2023-05-09T02:03:56.027Z,2.53
2023-05-09T02:06:24.912Z,2.05
2023-05-09T02:08:52.431Z,3.25
2023-05-09T02:11:19.820Z,3.13
2023-05-09T02:13:47.395Z,2.70
2023-05-09T02:16:15.500Z,2.38
2023-05-09T02:18:43.029Z,2.35
2023-05-09T02:21:10.712Z,2.53
2023-05-09T02:23:38.965Z,2.10
2023-05-09T02:26:07.147Z,2.35
2023-05-09T02:28:35.036Z,2.83
2023-05-09T02:31:06.560Z,2.72
2023-05-09T02:33:36.932Z,2.63
2023-05-09T02:36:06.117Z,2.88
2023-05-09T02:38:34.680Z,2.50
2023-05-09T02:41:03.188Z,2.78
2023-05-09T02:43:30.723Z,2.40
2023-05-09T02:45:58.156Z,2.63
2023-05-09T02:48:25.652Z,2.75
2023-05-09T02:50:53.131Z,2.60
2023-05-09T02:53:20.714Z,2.47
2023-05-09T02:55:48.159Z,2.30
2023-05-09T02:58:15.705Z,2.72
2023-05-09T03:00:44.913Z,2.95
2023-05-09T03:03:14.010Z,2.47
2023-05-09T03:05:41.581Z,3.08
2023-05-09T03:08:09.160Z,2.53
2023-05-09T03:10:36.643Z,2.58
2023-05-09T03:13:04.150Z,2.38
2023-05-09T03:15:31.843Z,2.50
2023-05-09T03:18:00.747Z,2.38
2023-05-09T03:20:28.217Z,2.28
2023-05-09T03:22:56.178Z,2.47
2023-05-09T03:25:26.250Z,3.38
2023-05-09T03:27:53.720Z,2.53
2023-05-09T03:30:21.263Z,2.42
2023-05-09T03:32:50.439Z,2.63
2023-05-09T03:35:18.124Z,2.47
2023-05-09T03:37:45.875Z,2.40
2023-05-09T03:40:13.490Z,2.78
2023-05-09T03:42:47.918Z,2.92
2023-05-09T03:45:15.602Z,2.70
2023-05-09T03:47:44.736Z,2.40
2023-05-09T03:50:12.494Z,2.65
2023-05-09T03:52:40.146Z,2.50
2023-05-09T03:55:08.359Z,2.78
2023-05-09T03:57:37.873Z,2.30
2023-05-09T04:00:06.953Z,2.38
2023-05-09T04:02:42.298Z,2.75
2023-05-09T04:05:17.461Z,2.20
2023-05-09T04:07:45.964Z,2.72
2023-05-09T04:10:14.003Z,2.25
2023-05-09T04:12:42.052Z,2.20
2023-05-09T04:15:11.233Z,2.10
2023-05-09T04:17:39.214Z,2.50
2023-05-09T04:20:08.348Z,2.30
2023-05-09T04:22:36.381Z,2.08
2023-05-09T04:25:04.831Z,2.03
2023-05-09T04:27:32.274Z,2.00
2023-05-09T04:30:00.557Z,2.38
2023-05-09T04:32:28.143Z,1.80
2023-05-09T04:34:55.872Z,1.95
2023-05-09T04:37:27.521Z,2.05
2023-05-09T04:39:55.297Z,2.28
2023-05-09T04:42:28.623Z,2.10
2023-05-09T04:44:56.054Z,2.58
2023-05-09T04:47:23.591Z,1.58
2023-05-09T04:49:51.024Z,1.75
2023-05-09T04:52:18.512Z,2.15
2023-05-09T04:54:46.091Z,3.47
2023-05-09T04:57:18.335Z,2.25
2023-05-09T04:59:53.062Z,2.15
2023-05-09T05:02:21.390Z,2.13
2023-05-09T05:04:52.862Z,1.88
2023-05-09T05:07:21.961Z,2.05
2023-05-09T05:09:49.678Z,1.90
2023-05-09T05:25:19.201Z,1.83
2023-05-09T05:27:48.995Z,2.20
2023-05-09T05:30:16.938Z,1.90
2023-05-09T05:32:44.864Z,1.85
2023-05-09T05:35:14.559Z,1.73
2023-05-09T05:37:42.929Z,2.03
2023-05-09T05:40:10.815Z,2.08
2023-05-09T05:42:41.312Z,1.63
2023-05-09T05:45:09.762Z,2.03
2023-05-09T05:47:40.300Z,2.27
2023-05-09T05:50:08.829Z,2.20
2023-05-09T05:52:41.634Z,2.00
2023-05-09T05:55:12.516Z,2.00
2023-05-09T05:57:40.242Z,2.10
2023-05-09T06:00:12.584Z,1.90
2023-05-09T06:02:51.566Z,2.08
2023-05-09T06:05:48.607Z,1.90
2023-05-09T06:08:17.022Z,2.20
2023-05-09T06:10:44.702Z,1.90
2023-05-09T06:13:12.286Z,1.90
2023-05-09T06:15:44.212Z,1.73
2023-05-09T06:18:14.259Z,1.90
2023-05-09T06:20:41.713Z,1.60
2023-05-09T06:23:09.465Z,2.13
2023-05-09T06:25:37.123Z,2.00
2023-05-09T06:28:05.033Z,2.35
2023-05-09T06:30:32.434Z,1.85
2023-05-09T06:33:00.154Z,1.95
2023-05-09T06:35:27.611Z,1.92
2023-05-09T06:37:54.983Z,1.88
2023-05-09T06:40:22.394Z,1.80
2023-05-09T06:42:49.833Z,2.08
2023-05-09T06:45:17.741Z,1.65
2023-05-09T06:47:45.895Z,1.50
2023-05-09T06:50:13.348Z,1.80
2023-05-09T06:52:40.899Z,1.50
2023-05-09T06:55:09.691Z,2.00
2023-05-09T06:57:38.284Z,1.98
2023-05-09T07:00:07.312Z,1.73
2023-05-09T07:02:34.982Z,1.70
2023-05-09T07:05:02.731Z,1.92
2023-05-09T07:07:30.402Z,2.15
2023-05-09T07:10:10.539Z,2.25
2023-05-09T07:12:39.340Z,2.15
2023-05-09T07:15:07.798Z,1.83
2023-05-09T07:17:35.799Z,2.22
2023-05-09T07:20:05.022Z,1.77
2023-05-09T07:22:37.312Z,2.67
2023-05-09T07:25:08.612Z,1.88
2023-05-09T07:27:37.037Z,2.05
2023-05-09T07:30:05.669Z,1.90
2023-05-09T07:32:33.229Z,1.80
2023-05-09T07:35:01.099Z,1.90
2023-05-09T07:37:28.663Z,1.92
2023-05-09T07:39:56.248Z,2.20
2023-05-09T07:42:23.852Z,1.52
2023-05-09T07:44:51.343Z,1.52
2023-05-09T07:47:18.857Z,1.67
2023-05-09T07:49:48.050Z,1.70
2023-05-09T07:52:17.354Z,2.05
2023-05-09T07:54:45.370Z,1.90
2023-05-09T07:57:12.954Z,2.08
2023-05-09T07:59:40.648Z,2.05
2023-05-09T08:02:08.440Z,2.42
2023-05-09T08:04:38.899Z,2.10
2023-05-09T08:07:07.387Z,1.75
2023-05-09T08:09:35.019Z,1.80
2023-05-09T08:12:04.496Z,2.22
2023-05-09T08:14:32.537Z,2.10
2023-05-09T08:17:00.031Z,1.90
2023-05-09T08:19:27.510Z,1.80
2023-05-09T08:21:57.566Z,2.10
2023-05-09T08:24:25.305Z,1.85
2023-05-09T08:26:52.818Z,2.17
2023-05-09T08:29:20.453Z,2.00
2023-05-09T08:31:47.920Z,1.77
2023-05-09T08:34:15.483Z,1.90
2023-05-09T08:36:45.681Z,2.05
2023-05-09T08:39:15.529Z,1.98
2023-05-09T08:41:43.710Z,1.70
2023-05-09T08:44:11.560Z,1.60
2023-05-09T08:46:42.581Z,2.00
2023-05-09T08:49:10.730Z,2.03
2023-05-09T08:51:38.658Z,2.38
2023-05-09T08:54:06.270Z,1.90
2023-05-09T08:56:35.616Z,2.13
2023-05-09T08:59:05.687Z,1.50
2023-05-09T09:01:43.856Z,1.80
2023-05-09T09:04:14.718Z,1.65
2023-05-09T09:06:42.944Z,1.67
2023-05-09T09:09:13.988Z,1.67
2023-05-09T09:11:43.031Z,2.53
2023-05-09T09:14:20.289Z,1.85
2023-05-09T09:16:49.747Z,1.63
2023-05-09T09:19:20.598Z,1.88
2023-05-09T09:21:51.263Z,1.50
2023-05-09T09:24:22.531Z,1.88
2023-05-09T09:26:51.950Z,1.80
2023-05-09T09:29:21.034Z,2.70
2023-05-09T09:31:53.605Z,1.98
2023-05-09T09:34:23.010Z,1.98
2023-05-09T09:36:50.819Z,1.67
2023-05-09T09:39:18.508Z,1.73
2023-05-09T09:41:46.135Z,1.90
2023-05-09T09:44:18.209Z,1.40
2023-05-09T09:46:50.853Z,1.40
2023-05-09T09:49:20.917Z,1.90
2023-05-09T09:51:58.474Z,1.55
2023-05-09T09:54:29.491Z,1.40
2023-05-09T09:56:57.127Z,1.90
2023-05-09T09:59:27.400Z,1.40
2023-05-09T10:02:00.781Z,1.50
2023-05-09T10:04:41.571Z,1.60
2023-05-09T10:07:14.651Z,1.73
2023-05-09T10:09:44.117Z,1.90
2023-05-09T10:12:14.782Z,2.03
2023-05-09T10:14:43.329Z,1.60
2023-05-09T10:17:14.272Z,1.77
2023-05-09T10:19:47.763Z,2.00
2023-05-09T10:22:17.985Z,2.10
2023-05-09T10:24:56.859Z,1.60
2023-05-09T10:27:28.795Z,1.48
2023-05-09T10:30:13.463Z,1.33
2023-05-09T10:32:58.257Z,1.95
2023-05-09T10:35:31.144Z,1.80
2023-05-09T10:38:00.053Z,1.55
2023-05-09T10:40:28.704Z,1.85
2023-05-09T10:42:56.102Z,1.48
2023-05-09T10:45:24.160Z,1.38
2023-05-09T10:47:53.338Z,1.63
2023-05-09T10:50:21.608Z,1.40
2023-05-09T10:53:11.179Z,1.48
2023-05-09T10:56:03.025Z,1.35
2023-05-09T10:58:37.509Z,1.38
2023-05-09T11:01:05.610Z,1.42
2023-05-09T11:03:56.166Z,1.25
2023-05-09T11:06:51.522Z,1.30
2023-05-09T11:09:40.024Z,1.55
2023-05-09T11:12:13.164Z,1.10
2023-05-09T11:14:48.971Z,1.38
2023-05-09T11:17:42.858Z,1.48
2023-05-09T11:20:39.509Z,1.50
2023-05-09T11:23:18.810Z,1.30
2023-05-09T11:26:07.743Z,2.20
2023-05-09T11:28:39.550Z,1.20
2023-05-09T11:31:17.816Z,1.25
2023-05-09T11:33:49.201Z,1.50
2023-05-09T11:36:37.352Z,1.40
2023-05-09T11:39:11.550Z,1.25
2023-05-09T11:41:47.360Z,1.27
2023-05-09T11:44:17.052Z,1.25
2023-05-09T11:46:45.870Z,2.92
2023-05-09T11:49:13.866Z,1.48
2023-05-09T11:51:41.908Z,1.33
2023-05-09T11:54:11.457Z,1.48
2023-05-09T11:56:42.074Z,1.42
2023-05-09T11:59:10.796Z,1.55
2023-05-09T12:01:38.379Z,1.20
2023-05-09T12:04:10.047Z,1.10
2023-05-09T12:06:37.898Z,1.40
2023-05-09T12:09:05.461Z,1.50
2023-05-09T12:11:35.002Z,1.00
2023-05-09T12:14:02.774Z,1.30
2023-05-09T12:16:30.871Z,1.20
2023-05-09T12:18:59.145Z,1.35
2023-05-09T12:21:26.559Z,1.10
2023-05-09T12:23:56.159Z,1.25
2023-05-09T12:26:23.831Z,1.20
2023-05-09T12:28:52.252Z,1.50
2023-05-09T12:31:20.438Z,0.90
2023-05-09T12:33:48.056Z,1.25
2023-05-09T12:36:16.759Z,1.25
2023-05-09T12:38:56.560Z,1.02
2023-05-09T12:41:37.051Z,1.05
2023-05-09T12:44:09.378Z,1.27
2023-05-09T12:46:37.648Z,1.05
2023-05-09T12:49:05.479Z,1.55
2023-05-09T12:51:32.949Z,1.20
2023-05-09T12:54:04.587Z,1.27
2023-05-09T12:56:35.667Z,1.52
2023-05-09T12:59:03.099Z,1.10
2023-05-09T13:01:30.554Z,1.23
2023-05-09T13:04:06.387Z,1.60
2023-05-09T13:06:47.641Z,0.82
2023-05-09T13:09:15.215Z,1.33
2023-05-09T13:11:46.514Z,1.08
2023-05-09T13:14:14.711Z,1.10
2023-05-09T13:16:42.203Z,1.40
2023-05-09T13:19:09.946Z,1.20
2023-05-09T13:21:37.470Z,1.23
2023-05-09T13:24:05.448Z,1.10
2023-05-09T13:26:32.976Z,1.52
2023-05-09T13:29:00.543Z,1.50
2023-05-09T13:31:28.099Z,1.30
2023-05-09T13:33:55.429Z,1.10
2023-05-09T13:36:25.206Z,1.17
2023-05-09T13:38:52.498Z,1.40
2023-05-09T13:41:24.089Z,1.73
2023-05-09T13:43:51.535Z,1.27
2023-05-09T13:46:18.930Z,1.30
2023-05-09T13:48:48.900Z,1.58
2023-05-09T13:51:16.277Z,1.30
2023-05-09T13:53:43.559Z,1.92
2023-05-09T13:56:11.182Z,1.23
2023-05-09T13:58:38.599Z,1.35
2023-05-09T14:01:08.818Z,1.40
2023-05-09T14:03:36.307Z,1.50
2023-05-09T14:06:04.410Z,1.70
2023-05-09T14:08:32.308Z,1.50
2023-05-09T14:10:59.756Z,1.70
2023-05-09T14:13:27.372Z,1.30
2023-05-09T14:15:54.857Z,1.50
2023-05-09T14:18:22.147Z,1.50
2023-05-09T14:20:49.509Z,1.48
2023-05-09T14:26:02.241Z,1.30
2023-05-09T14:28:32.030Z,1.70
2023-05-09T14:30:59.536Z,1.73
2023-05-09T14:33:28.000Z,1.25
2023-05-09T14:35:55.461Z,1.88
2023-05-09T14:38:22.932Z,1.65
2023-05-09T14:40:51.383Z,1.38
2023-05-09T14:43:18.881Z,1.65
2023-05-09T14:45:46.216Z,1.60
2023-05-09T14:48:15.949Z,1.67
2023-05-09T14:50:46.308Z,1.50
2023-05-09T14:53:14.146Z,1.45
2023-05-09T14:55:41.776Z,1.40
2023-05-09T14:58:09.503Z,1.40
2023-05-09T15:00:36.831Z,1.73
2023-05-09T15:03:04.413Z,1.85
2023-05-09T15:05:31.823Z,1.77
2023-05-09T15:08:01.921Z,2.17
2023-05-09T15:10:29.839Z,1.77
2023-05-09T15:12:57.216Z,1.50
2023-05-09T15:15:24.568Z,1.45
2023-05-09T15:17:52.763Z,1.92
2023-05-09T15:20:20.265Z,1.77
2023-05-09T15:22:49.255Z,1.67
2023-05-09T15:25:17.085Z,1.25
2023-05-09T15:27:44.600Z,1.48
2023-05-09T15:30:14.110Z,1.45
2023-05-09T15:32:41.919Z,2.20
2023-05-09T15:35:09.616Z,1.70
2023-05-09T15:37:37.293Z,1.42
2023-05-09T15:40:05.525Z,1.70
2023-05-09T15:42:32.848Z,1.98
2023-05-09T15:45:00.453Z,1.50
2023-05-09T15:47:30.512Z,1.52
2023-05-09T15:49:57.893Z,1.80
2023-05-09T15:52:25.916Z,1.55
2023-05-09T15:54:55.600Z,1.70
2023-05-09T15:57:26.153Z,1.90
2023-05-09T15:59:56.130Z,1.90
2023-05-09T16:02:26.018Z,1.98
2023-05-09T16:04:56.589Z,1.80
2023-05-09T16:07:24.784Z,1.70
2023-05-09T16:09:54.428Z,1.90
2023-05-09T16:12:21.772Z,1.58
2023-05-09T16:14:49.217Z,1.90
2023-05-09T16:17:16.857Z,1.42
2023-05-09T16:19:44.277Z,2.05
2023-05-09T16:22:11.876Z,1.65
2023-05-09T16:24:39.291Z,1.88
2023-05-09T16:27:06.690Z,1.70
2023-05-09T16:29:34.300Z,1.95
2023-05-09T16:32:02.022Z,1.55
2023-05-09T16:34:29.540Z,2.10
2023-05-09T16:36:56.915Z,1.95
2023-05-09T16:39:24.247Z,1.77
2023-05-09T16:41:51.543Z,1.95
2023-05-09T16:44:18.954Z,2.15
2023-05-09T16:46:47.186Z,2.13
2023-05-09T16:49:17.715Z,1.75
2023-05-09T16:51:45.093Z,1.65
2023-05-09T16:54:12.507Z,1.85
2023-05-09T16:56:40.015Z,1.63
2023-05-09T16:59:07.558Z,1.75
2023-05-09T17:01:43.898Z,1.85
2023-05-09T17:04:11.371Z,1.80
2023-05-09T17:06:38.955Z,3.03
2023-05-09T17:09:08.895Z,1.90
2023-05-09T17:11:36.233Z,2.35
2023-05-09T17:14:03.776Z,1.80
2023-05-09T17:16:31.463Z,1.75
2023-05-09T17:18:59.290Z,1.83
2023-05-09T17:21:26.830Z,2.38
2023-05-09T17:23:54.243Z,1.30
2023-05-09T17:26:21.816Z,1.55
2023-05-09T17:28:49.773Z,1.60
2023-05-09T17:31:20.126Z,1.67
2023-05-09T17:37:55.051Z,1.60
2023-05-09T17:40:22.574Z,1.38
2023-05-09T17:42:49.925Z,1.33
2023-05-09T17:45:17.377Z,1.75
2023-05-09T17:47:44.741Z,1.63
2023-05-09T17:50:18.342Z,1.60
2023-05-09T17:52:55.183Z,1.20
2023-05-09T17:55:26.227Z,1.38
2023-05-09T17:57:53.757Z,1.23
2023-05-09T18:00:21.354Z,1.52
2023-05-09T18:02:51.041Z,1.48
2023-05-09T18:05:18.653Z,1.80
2023-05-09T18:07:45.993Z,1.73
2023-05-09T18:10:13.641Z,1.40
2023-05-09T18:12:41.697Z,1.50
2023-05-09T18:15:12.477Z,1.58
2023-05-09T18:17:40.342Z,1.70
2023-05-09T18:20:08.751Z,1.88
2023-05-09T18:22:37.356Z,1.48
2023-05-09T18:25:05.303Z,1.60
2023-05-09T18:27:32.673Z,1.75
2023-05-09T18:30:00.055Z,1.70
2023-05-09T18:32:27.418Z,1.45
2023-05-09T18:34:54.817Z,1.65
2023-05-09T18:37:22.868Z,1.20
2023-05-09T18:39:50.508Z,1.63
2023-05-09T18:42:18.220Z,1.55
2023-05-09T18:44:46.016Z,1.60
2023-05-09T18:47:18.573Z,1.80
2023-05-09T18:49:48.825Z,1.85
2023-05-09T18:52:18.907Z,1.30
2023-05-09T18:54:46.356Z,1.45
2023-05-09T18:57:15.952Z,1.50
2023-05-09T18:59:43.291Z,1.45
2023-05-09T19:02:10.607Z,1.85
2023-05-09T19:04:38.132Z,1.77
2023-05-09T19:07:09.992Z,2.00
2023-05-09T19:09:37.438Z,1.52
2023-05-09T19:12:05.331Z,2.00
2023-05-09T19:14:32.682Z,2.03
2023-05-09T19:17:00.115Z,2.22
2023-05-09T19:19:27.591Z,1.60
2023-05-09T19:21:55.178Z,1.80
2023-05-09T19:24:22.637Z,1.70
2023-05-09T19:26:49.975Z,1.88
2023-05-09T19:29:17.285Z,2.47
2023-05-09T19:31:44.707Z,2.13
2023-05-09T19:34:14.298Z,1.80
2023-05-09T19:36:41.879Z,1.70
2023-05-09T19:39:09.431Z,1.70
2023-05-09T19:41:36.832Z,1.73
2023-05-09T19:44:04.493Z,1.92
2023-05-09T19:46:35.662Z,1.65
2023-05-09T19:49:03.000Z,2.25
2023-05-09T19:51:31.144Z,2.15
2023-05-09T19:53:58.708Z,1.50
2023-05-09T19:56:35.090Z,1.75
2023-05-09T19:59:02.501Z,1.75
2023-05-09T20:01:29.869Z,1.95
2023-05-09T20:03:57.382Z,1.75
2023-05-09T20:06:25.858Z,1.83
2023-05-09T20:08:56.028Z,1.60
2023-05-09T20:11:23.434Z,2.22
2023-05-09T20:13:53.111Z,1.92
2023-05-09T20:16:21.337Z,1.88
2023-05-09T20:18:50.705Z,1.80
2023-05-09T20:21:19.367Z,1.80
2023-05-09T20:23:46.659Z,1.90
2023-05-09T20:26:14.086Z,2.05
2023-05-09T20:28:41.405Z,2.15
2023-05-09T20:31:09.034Z,1.70
2023-05-09T20:33:36.385Z,1.63
2023-05-09T20:36:05.034Z,1.80
2023-05-09T20:38:32.523Z,1.90
2023-05-09T20:40:59.809Z,1.95
2023-05-09T20:43:27.121Z,1.67
2023-05-09T20:45:54.472Z,1.98
2023-05-09T20:48:23.593Z,1.73
2023-05-09T20:50:51.225Z,1.60
2023-05-09T20:53:19.175Z,1.40
2023-05-09T20:55:47.791Z,2.28
2023-05-09T20:58:16.373Z,2.42
2023-05-09T21:00:46.843Z,2.25
2023-05-09T21:03:14.471Z,2.00
2023-05-09T21:05:42.655Z,1.67
2023-05-09T21:08:10.044Z,1.80
2023-05-09T21:10:37.453Z,1.70
2023-05-09T21:13:04.971Z,2.03
2023-05-09T21:15:35.033Z,2.10
2023-05-09T21:18:02.405Z,2.08
2023-05-09T21:20:29.827Z,2.10
2023-05-09T21:22:57.213Z,1.80
2023-05-09T21:25:24.529Z,1.75
2023-05-09T21:27:51.835Z,1.70
2023-05-09T21:30:19.315Z,1.67
2023-05-09T21:32:46.681Z,1.48
2023-05-09T21:35:16.352Z,1.35
2023-05-09T21:37:43.693Z,1.70
2023-05-09T21:40:12.385Z,1.90
2023-05-09T21:42:41.121Z,1.70
2023-05-09T21:45:11.498Z,1.45
2023-05-09T21:47:39.781Z,1.90
2023-05-09T21:50:12.543Z,1.80
2023-05-09T21:52:39.914Z,1.90
2023-05-09T21:55:07.613Z,2.00
2023-05-09T21:57:34.904Z,1.80
2023-05-09T22:00:05.332Z,1.80
2023-05-09T22:02:42.942Z,1.73
2023-05-09T22:05:11.187Z,1.80
2023-05-09T22:07:42.083Z,1.70
2023-05-09T22:10:10.132Z,1.85
2023-05-09T22:12:37.584Z,1.52
2023-05-09T22:15:05.755Z,1.30
2023-05-09T22:17:33.247Z,1.80
2023-05-09T22:20:00.773Z,1.30
2023-05-09T22:22:28.264Z,1.95
2023-05-09T22:24:58.433Z,1.80
2023-05-09T22:27:25.729Z,1.73
2023-05-09T22:29:53.142Z,1.50
2023-05-09T22:32:20.517Z,1.67
2023-05-09T22:34:50.859Z,1.58
2023-05-09T22:37:23.562Z,1.88
2023-05-09T22:39:51.168Z,2.20
2023-05-09T22:42:18.483Z,1.50
2023-05-09T22:44:49.782Z,1.77
2023-05-09T22:47:17.117Z,1.90
2023-05-09T22:49:45.908Z,1.38
2023-05-09T22:52:13.572Z,1.48
2023-05-09T22:54:41.397Z,2.03
2023-05-09T22:57:11.108Z,1.42
2023-05-09T22:59:38.739Z,1.60
2023-05-09T23:02:06.106Z,1.42
2023-05-09T23:04:33.434Z,1.27
2023-05-09T23:07:00.980Z,1.50
2023-05-09T23:09:28.534Z,1.50
2023-05-09T23:11:56.105Z,1.50
2023-05-09T23:14:23.553Z,1.55
2023-05-09T23:16:51.026Z,1.48
2023-05-09T23:19:19.765Z,1.52
2023-05-09T23:21:50.619Z,1.20
2023-05-09T23:24:17.992Z,1.20
2023-05-09T23:26:45.533Z,1.50
2023-05-09T23:29:12.820Z,1.33
2023-05-09T23:31:40.232Z,1.13
2023-05-09T23:34:07.638Z,1.08
2023-05-09T23:36:34.997Z,1.27
2023-05-09T23:39:02.310Z,1.00
2023-05-09T23:41:32.660Z,1.10
2023-05-09T23:44:00.125Z,1.55
2023-05-09T23:46:27.531Z,1.17
2023-05-09T23:48:55.334Z,1.23
2023-05-09T23:51:22.920Z,1.40
2023-05-09T23:53:50.472Z,1.25
2023-05-09T23:56:17.787Z,1.40
2023-05-09T23:58:45.334Z,1.33
